createdAt,value
2017-12-26T00:01:35.955Z,5.40
2017-12-26T00:04:09.733Z,5.50
2017-12-26T00:06:43.496Z,5.50
2017-12-26T00:09:18.090Z,5.60
2017-12-26T00:11:52.282Z,5.50
2017-12-26T00:14:27.766Z,5.50
2017-12-26T00:17:02.303Z,5.60
2017-12-26T00:19:36.010Z,5.60
2017-12-26T00:22:10.612Z,5.60
2017-12-26T00:24:44.436Z,5.60
2017-12-26T00:27:20.254Z,5.50
2017-12-26T00:29:54.143Z,5.50
2017-12-26T00:32:28.541Z,5.50
2017-12-26T00:35:03.125Z,5.50
2017-12-26T00:37:36.858Z,5.50
2017-12-26T00:40:10.615Z,5.50
2017-12-26T00:42:45.148Z,5.50
2017-12-26T00:45:20.231Z,5.50
2017-12-26T00:47:53.830Z,5.50
2017-12-26T00:50:27.583Z,5.40
2017-12-26T00:53:02.329Z,5.40
2017-12-26T00:55:36.969Z,5.40
2017-12-26T00:58:11.683Z,5.30
2017-12-26T01:00:45.372Z,5.20
2017-12-26T01:03:19.184Z,5.00
2017-12-26T01:05:53.019Z,5.00
2017-12-26T01:08:26.743Z,4.90
2017-12-26T01:11:03.929Z,4.80
2017-12-26T01:13:38.516Z,4.70
2017-12-26T01:16:12.324Z,4.60
2017-12-26T01:18:46.866Z,4.60
2017-12-26T01:21:20.669Z,4.60
2017-12-26T01:23:54.758Z,4.50
2017-12-26T01:26:28.568Z,4.50
2017-12-26T01:29:02.320Z,4.50
2017-12-26T01:31:37.808Z,4.40
2017-12-26T01:34:12.275Z,4.40
2017-12-26T01:36:45.998Z,4.30
2017-12-26T01:39:20.450Z,4.30
2017-12-26T01:41:54.387Z,4.30
2017-12-26T01:44:28.098Z,4.30
2017-12-26T01:47:02.598Z,4.30
2017-12-26T01:49:36.373Z,4.30
2017-12-26T01:52:10.086Z,4.30
2017-12-26T01:54:43.846Z,4.30
2017-12-26T01:57:17.648Z,4.30
2017-12-26T01:59:51.460Z,4.20
2017-12-26T02:02:25.110Z,4.20
2017-12-26T02:04:58.828Z,4.20
2017-12-26T02:07:32.581Z,4.20
2017-12-26T02:10:07.101Z,4.20
2017-12-26T02:12:40.775Z,4.10
2017-12-26T02:15:15.763Z,4.10
2017-12-26T02:17:49.541Z,4.10
2017-12-26T02:20:23.270Z,4.00
2017-12-26T02:22:57.818Z,3.90
2017-12-26T02:25:33.654Z,3.90
2017-12-26T02:28:08.008Z,3.90
2017-12-26T02:30:41.852Z,3.90
2017-12-26T02:33:16.473Z,3.90
2017-12-26T02:35:50.181Z,3.80
2017-12-26T02:38:26.070Z,3.80
2017-12-26T02:41:00.097Z,3.70
2017-12-26T02:43:33.810Z,3.70
2017-12-26T02:46:11.582Z,3.70
2017-12-26T02:48:45.153Z,3.70
2017-12-26T02:51:20.608Z,3.70
2017-12-26T02:53:54.394Z,3.70
2017-12-26T02:56:28.720Z,3.70
2017-12-26T02:59:17.121Z,3.60
2017-12-26T03:01:50.879Z,3.70
2017-12-26T03:04:25.678Z,3.60
2017-12-26T03:06:59.463Z,3.60
2017-12-26T03:09:33.185Z,3.60
2017-12-26T03:12:07.002Z,3.60
2017-12-26T03:14:41.166Z,3.60
2017-12-26T03:17:14.907Z,3.50
2017-12-26T03:19:48.606Z,3.40
2017-12-26T03:22:22.412Z,3.40
2017-12-26T03:24:56.900Z,3.40
2017-12-26T03:27:31.651Z,3.40
2017-12-26T03:30:06.502Z,3.40
2017-12-26T03:32:40.301Z,3.40
2017-12-26T03:35:15.031Z,3.40
2017-12-26T03:37:50.374Z,3.30
2017-12-26T03:40:24.118Z,3.30
2017-12-26T03:43:08.336Z,3.30
2017-12-26T03:45:49.139Z,3.20
2017-12-26T03:48:23.711Z,3.20
2017-12-26T03:50:57.432Z,3.20
2017-12-26T03:53:31.175Z,3.40
2017-12-26T03:56:05.547Z,3.50
2017-12-26T03:58:39.359Z,3.60
2017-12-26T04:01:13.095Z,3.80
2017-12-26T04:03:46.869Z,3.90
2017-12-26T04:06:20.472Z,4.00
2017-12-26T04:08:55.204Z,4.00
2017-12-26T04:11:29.006Z,4.10
2017-12-26T04:14:02.666Z,4.20
2017-12-26T04:16:36.405Z,4.30
2017-12-26T04:19:10.217Z,4.30
2017-12-26T04:21:43.882Z,4.30
2017-12-26T04:24:22.889Z,4.40
2017-12-26T04:26:56.659Z,4.40
2017-12-26T04:29:30.519Z,4.40
2017-12-26T04:32:04.218Z,4.40
2017-12-26T04:34:39.017Z,4.40
2017-12-26T04:37:12.809Z,4.50
2017-12-26T04:39:46.559Z,4.50
2017-12-26T04:42:20.979Z,4.60
2017-12-26T04:44:54.686Z,4.60
2017-12-26T04:47:29.656Z,4.60
2017-12-26T04:50:03.433Z,4.60
2017-12-26T04:52:38.164Z,4.60
2017-12-26T04:55:11.992Z,4.60
2017-12-26T04:57:45.788Z,4.70
2017-12-26T05:00:19.673Z,4.80
2017-12-26T05:02:57.642Z,4.90
2017-12-26T05:05:31.504Z,4.80
2017-12-26T05:08:06.070Z,4.90
2017-12-26T05:10:39.890Z,4.90
2017-12-26T05:13:13.968Z,5.00
2017-12-26T05:15:48.525Z,5.10
2017-12-26T05:18:22.361Z,5.10
2017-12-26T05:20:56.131Z,5.10
2017-12-26T05:23:30.660Z,5.00
2017-12-26T05:26:05.105Z,5.00
2017-12-26T05:28:40.054Z,5.10
2017-12-26T05:31:14.835Z,5.10
2017-12-26T05:33:48.562Z,5.10
2017-12-26T05:36:22.190Z,5.10
2017-12-26T05:38:56.424Z,5.20
2017-12-26T05:44:43.685Z,5.20
2017-12-26T05:47:17.688Z,5.20
2017-12-26T05:58:51.141Z,5.30
2017-12-26T06:01:24.871Z,5.30
2017-12-26T06:03:59.048Z,5.40
2017-12-26T06:06:41.231Z,5.40
2017-12-26T06:09:15.011Z,5.40
2017-12-26T06:11:51.377Z,5.30
2017-12-26T06:14:26.610Z,5.30
2017-12-26T06:17:01.229Z,5.30
2017-12-26T06:19:34.834Z,5.20
2017-12-26T06:22:08.591Z,5.30
2017-12-26T06:24:42.395Z,5.20
2017-12-26T06:27:16.129Z,5.30
2017-12-26T06:30:02.568Z,5.20
2017-12-26T06:38:36.539Z,5.10
2017-12-26T06:41:10.243Z,5.10
2017-12-26T06:43:45.559Z,5.00
2017-12-26T06:46:21.400Z,5.00
2017-12-26T06:48:55.108Z,5.00
2017-12-26T06:51:29.913Z,5.00
2017-12-26T06:54:03.553Z,5.00
2017-12-26T06:56:37.934Z,5.00
2017-12-26T06:59:12.394Z,5.00
2017-12-26T07:01:47.529Z,5.00
2017-12-26T07:04:21.149Z,5.10
2017-12-26T07:06:54.877Z,5.10
2017-12-26T07:09:29.558Z,5.20
2017-12-26T07:12:04.285Z,5.10
2017-12-26T07:14:38.057Z,5.10
2017-12-26T07:17:12.979Z,5.10
2017-12-26T07:19:47.384Z,5.00
2017-12-26T07:22:23.276Z,5.10
2017-12-26T07:24:58.907Z,5.10
2017-12-26T07:27:32.660Z,5.10
2017-12-26T07:30:07.393Z,5.10
2017-12-26T07:32:41.061Z,5.30
2017-12-26T07:35:15.712Z,5.40
2017-12-26T07:37:50.441Z,5.60
2017-12-26T07:40:25.052Z,5.70
2017-12-26T07:42:59.749Z,5.80
2017-12-26T07:45:38.008Z,5.90
2017-12-26T07:48:13.493Z,6.10
2017-12-26T07:50:47.347Z,6.10
2017-12-26T07:53:22.807Z,6.30
2017-12-26T07:55:56.627Z,6.30
2017-12-26T07:58:31.344Z,6.40
2017-12-26T08:01:05.857Z,6.60
2017-12-26T08:03:40.137Z,6.60
2017-12-26T08:06:14.811Z,6.70
2017-12-26T08:08:49.900Z,6.80
2017-12-26T08:11:23.538Z,6.80
2017-12-26T08:13:58.782Z,6.90
2017-12-26T08:16:33.881Z,7.00
2017-12-26T08:19:07.619Z,7.00
2017-12-26T08:21:41.844Z,7.10
2017-12-26T08:24:16.321Z,7.20
2017-12-26T08:26:50.737Z,7.20
2017-12-26T08:29:24.548Z,7.20
2017-12-26T08:31:58.276Z,7.20
2017-12-26T08:34:32.947Z,7.40
2017-12-26T08:37:07.471Z,7.30
2017-12-26T08:39:41.060Z,7.40
2017-12-26T08:42:14.802Z,7.40
2017-12-26T08:44:49.205Z,7.40
2017-12-26T08:47:23.654Z,7.50
2017-12-26T08:49:57.411Z,7.40
2017-12-26T08:52:31.100Z,7.50
2017-12-26T08:55:05.654Z,7.50
2017-12-26T08:57:39.381Z,7.50
2017-12-26T09:00:13.256Z,7.50
2017-12-26T09:02:47.012Z,7.60
2017-12-26T09:05:20.866Z,7.70
2017-12-26T09:07:55.504Z,7.60
2017-12-26T09:10:29.211Z,7.60
2017-12-26T09:13:03.156Z,7.60
2017-12-26T09:15:36.869Z,7.60
2017-12-26T09:18:11.431Z,7.70
2017-12-26T09:20:45.144Z,7.60
2017-12-26T09:23:18.908Z,7.70
2017-12-26T09:25:52.675Z,7.70
2017-12-26T09:28:27.372Z,7.60
2017-12-26T09:31:02.380Z,7.50
2017-12-26T09:33:36.340Z,7.50
2017-12-26T09:36:10.268Z,7.40
2017-12-26T09:38:44.092Z,7.40
2017-12-26T09:41:18.888Z,7.30
2017-12-26T09:43:52.638Z,7.20
2017-12-26T09:46:26.340Z,7.10
2017-12-26T09:49:00.121Z,7.10
2017-12-26T09:51:33.929Z,7.00
2017-12-26T09:54:07.763Z,6.90
2017-12-26T09:56:41.460Z,6.80
2017-12-26T09:59:16.023Z,6.60
2017-12-26T10:01:49.729Z,6.60
2017-12-26T10:04:34.526Z,6.60
2017-12-26T10:07:08.660Z,6.50
2017-12-26T10:09:43.084Z,6.50
2017-12-26T10:12:21.872Z,6.50
2017-12-26T10:14:56.252Z,6.50
2017-12-26T10:17:30.113Z,6.50
2017-12-26T10:20:04.061Z,6.40
2017-12-26T10:22:38.470Z,6.40
2017-12-26T10:25:14.070Z,6.40
2017-12-26T10:27:47.946Z,6.40
2017-12-26T10:30:21.642Z,6.40
2017-12-26T10:32:56.083Z,6.50
2017-12-26T10:35:30.745Z,6.50
2017-12-26T10:38:04.454Z,6.50
2017-12-26T10:40:38.221Z,6.40
2017-12-26T10:43:12.267Z,6.40
2017-12-26T10:45:48.548Z,6.30
2017-12-26T10:48:22.927Z,6.30
2017-12-26T10:50:56.651Z,6.30
2017-12-26T10:53:30.854Z,6.30
2017-12-26T10:56:05.336Z,6.30
2017-12-26T10:58:40.721Z,6.40
2017-12-26T11:01:24.405Z,6.40
2017-12-26T11:03:59.631Z,6.50
2017-12-26T11:06:35.740Z,6.50
2017-12-26T11:09:11.453Z,6.50
2017-12-26T11:11:46.683Z,6.50
2017-12-26T11:14:21.622Z,6.50
2017-12-26T11:16:55.984Z,6.50
2017-12-26T11:19:31.434Z,6.50
2017-12-26T11:22:05.992Z,6.50
2017-12-26T11:24:39.772Z,6.50
2017-12-26T11:27:13.809Z,6.60
2017-12-26T11:29:47.422Z,6.60
2017-12-26T11:32:21.176Z,6.60
2017-12-26T11:34:55.143Z,6.60
2017-12-26T11:37:29.712Z,6.70
2017-12-26T11:40:03.516Z,6.60
2017-12-26T11:42:37.937Z,6.70
2017-12-26T11:45:11.657Z,6.70
2017-12-26T11:47:45.513Z,6.70
2017-12-26T11:50:20.014Z,6.70
2017-12-26T11:52:53.688Z,6.60
2017-12-26T11:55:27.418Z,6.70
2017-12-26T11:58:01.128Z,6.60
2017-12-26T12:00:34.928Z,6.60
2017-12-26T12:03:16.516Z,6.60
2017-12-26T12:05:50.301Z,6.60
2017-12-26T12:17:23.068Z,6.60
2017-12-26T12:19:56.863Z,6.60
2017-12-26T12:22:30.709Z,6.60
2017-12-26T12:25:04.609Z,6.60
2017-12-26T12:27:39.151Z,6.60
2017-12-26T12:30:12.974Z,6.60
2017-12-26T12:32:47.630Z,6.60
2017-12-26T12:35:21.494Z,6.60
2017-12-26T12:37:56.010Z,6.60
2017-12-26T12:40:29.671Z,6.60
2017-12-26T12:43:04.395Z,6.60
2017-12-26T12:45:38.555Z,6.60
2017-12-26T12:48:12.206Z,6.60
2017-12-26T12:50:46.017Z,6.60
2017-12-26T12:53:21.327Z,6.60
2017-12-26T12:55:55.480Z,6.60
2017-12-26T12:58:37.646Z,6.70
2017-12-26T13:01:12.429Z,6.70
2017-12-26T13:03:46.243Z,6.70
2017-12-26T13:06:20.154Z,6.70
2017-12-26T13:08:54.531Z,6.70
2017-12-26T13:11:28.220Z,6.70
2017-12-26T13:14:03.689Z,6.70
2017-12-26T13:16:37.414Z,6.70
2017-12-26T13:19:11.119Z,6.70
2017-12-26T13:21:46.485Z,6.70
2017-12-26T13:24:20.160Z,6.70
2017-12-26T13:26:53.947Z,6.80
2017-12-26T13:29:27.868Z,6.90
2017-12-26T13:32:01.676Z,6.90
2017-12-26T13:34:36.478Z,6.80
2017-12-26T13:37:10.223Z,6.70
2017-12-26T13:39:44.929Z,6.60
2017-12-26T13:42:18.616Z,6.50
2017-12-26T13:44:52.539Z,6.50
2017-12-26T13:47:26.255Z,6.50
2017-12-26T13:50:00.141Z,6.60
2017-12-26T13:52:35.124Z,6.60
2017-12-26T13:55:08.799Z,6.60
2017-12-26T13:57:42.587Z,6.60
2017-12-26T14:00:17.129Z,6.60
2017-12-26T14:02:51.731Z,6.60
2017-12-26T14:05:25.868Z,6.60
2017-12-26T14:07:59.575Z,6.70
2017-12-26T14:10:33.393Z,6.70
2017-12-26T14:13:07.165Z,6.60
2017-12-26T14:15:43.798Z,6.60
2017-12-26T14:18:17.474Z,6.50
2017-12-26T14:20:51.101Z,6.40
2017-12-26T14:23:24.805Z,6.40
2017-12-26T14:25:58.971Z,6.30
2017-12-26T14:28:32.544Z,6.30
2017-12-26T14:31:07.016Z,6.30
2017-12-26T14:33:41.441Z,6.30
2017-12-26T14:36:15.236Z,6.20
2017-12-26T14:38:49.277Z,6.30
2017-12-26T14:41:22.973Z,6.30
2017-12-26T14:43:59.021Z,6.30
2017-12-26T14:46:32.704Z,6.30
2017-12-26T14:49:09.360Z,6.30
2017-12-26T14:51:43.680Z,6.20
2017-12-26T14:54:17.771Z,6.30
2017-12-26T14:56:56.906Z,6.20
2017-12-26T14:59:32.925Z,6.20
2017-12-26T15:02:07.621Z,6.20
2017-12-26T15:04:42.250Z,6.10
2017-12-26T15:07:15.958Z,6.10
2017-12-26T15:09:50.871Z,6.10
2017-12-26T15:12:24.749Z,6.10
2017-12-26T15:14:58.489Z,6.00
2017-12-26T15:17:33.647Z,6.00
2017-12-26T15:20:07.519Z,6.00
2017-12-26T15:22:41.353Z,6.00
2017-12-26T15:25:15.187Z,5.90
2017-12-26T15:27:50.044Z,5.90
2017-12-26T15:30:26.972Z,5.90
2017-12-26T15:33:03.674Z,5.90
2017-12-26T15:35:37.613Z,5.90
2017-12-26T15:38:11.292Z,5.90
2017-12-26T15:40:46.020Z,5.90
2017-12-26T15:43:20.299Z,5.90
2017-12-26T15:45:55.340Z,5.90
2017-12-26T15:48:29.568Z,5.80
2017-12-26T15:51:04.826Z,5.80
2017-12-26T15:53:39.499Z,5.80
2017-12-26T15:56:13.284Z,5.80
2017-12-26T15:58:48.123Z,5.90
2017-12-26T16:01:21.984Z,5.80
2017-12-26T16:03:55.797Z,5.80
2017-12-26T16:06:31.618Z,5.80
2017-12-26T16:09:06.001Z,5.70
2017-12-26T16:11:39.693Z,5.70
2017-12-26T16:14:14.348Z,5.70
2017-12-26T16:16:48.846Z,5.70
2017-12-26T16:19:22.512Z,5.70
2017-12-26T16:21:56.385Z,5.70
2017-12-26T16:24:30.162Z,5.60
2017-12-26T16:27:04.700Z,5.60
2017-12-26T16:29:39.779Z,5.60
2017-12-26T16:32:13.535Z,5.60
2017-12-26T16:34:47.144Z,5.70
2017-12-26T16:37:22.989Z,5.70
2017-12-26T16:39:58.209Z,5.80
2017-12-26T16:42:32.016Z,5.80
2017-12-26T16:45:05.918Z,5.80
2017-12-26T16:47:40.469Z,5.70
2017-12-26T16:50:14.768Z,5.70
2017-12-26T16:52:49.007Z,5.70
2017-12-26T16:55:26.456Z,5.60
2017-12-26T16:58:04.976Z,5.60
2017-12-26T17:00:43.001Z,5.60
2017-12-26T17:03:16.799Z,5.60
2017-12-26T17:05:50.510Z,5.60
2017-12-26T17:14:42.379Z,5.50
2017-12-26T17:17:16.930Z,5.50
2017-12-26T17:19:51.770Z,5.50
2017-12-26T17:22:26.293Z,5.50
2017-12-26T17:25:01.220Z,5.50
2017-12-26T17:27:36.849Z,5.50
2017-12-26T17:30:10.641Z,5.50
2017-12-26T17:32:44.833Z,5.50
2017-12-26T17:35:18.476Z,5.40
2017-12-26T17:37:52.335Z,5.50
2017-12-26T17:40:25.909Z,5.50
2017-12-26T17:43:00.883Z,5.50
2017-12-26T17:45:42.208Z,5.40
2017-12-26T17:48:16.888Z,5.50
2017-12-26T17:50:50.531Z,5.40
2017-12-26T17:53:24.543Z,5.40
2017-12-26T17:55:59.729Z,5.30
2017-12-26T17:58:34.272Z,5.30
2017-12-26T18:01:08.017Z,5.40
2017-12-26T18:03:42.498Z,5.40
2017-12-26T18:06:16.376Z,5.40
2017-12-26T18:08:50.901Z,5.40
2017-12-26T18:11:24.577Z,5.40
2017-12-26T18:14:00.215Z,5.40
2017-12-26T18:16:35.461Z,5.40
2017-12-26T18:21:55.627Z,5.40
2017-12-26T18:24:31.756Z,5.50
2017-12-26T18:27:07.779Z,5.50
2017-12-26T18:32:31.670Z,5.70
2017-12-26T18:35:07.362Z,5.70
2017-12-26T18:50:00.816Z,5.80
2017-12-26T18:52:38.840Z,5.80
2017-12-26T18:55:20.287Z,5.80
2017-12-26T18:57:57.786Z,5.80
2017-12-26T19:00:39.226Z,5.60
2017-12-26T19:05:54.730Z,5.70
2017-12-26T19:11:17.404Z,5.70
2017-12-26T19:13:53.754Z,5.70
2017-12-26T19:16:31.820Z,5.80
2017-12-26T19:19:09.405Z,5.80
2017-12-26T19:24:34.363Z,5.70
2017-12-26T19:27:09.038Z,5.70
2017-12-26T19:29:49.802Z,5.70
2017-12-26T19:32:24.475Z,5.70
2017-12-26T20:39:06.855Z,5.20
2017-12-26T20:41:49.039Z,5.10
2017-12-26T21:02:39.076Z,4.80
2017-12-26T21:07:58.610Z,4.70
2017-12-26T21:10:44.920Z,4.70
2017-12-26T21:24:50.484Z,4.70
2017-12-26T21:30:22.684Z,4.60
2017-12-26T21:32:58.896Z,4.60
2017-12-26T21:35:34.460Z,4.60
2017-12-26T21:38:18.921Z,4.60
2017-12-26T21:40:56.232Z,4.50
2017-12-26T21:43:36.950Z,4.40
2017-12-26T21:46:24.775Z,4.30
2017-12-26T21:49:02.180Z,4.30
2017-12-26T21:51:37.300Z,4.10
2017-12-26T21:57:07.404Z,4.00
2017-12-26T22:02:49.059Z,4.00
2017-12-26T22:05:50.305Z,4.00
2017-12-26T22:17:12.211Z,3.80
2017-12-26T22:22:49.057Z,3.50
2017-12-26T22:25:44.582Z,3.40
2017-12-26T22:31:31.310Z,3.20
2017-12-26T23:07:00.896Z,3.20
2017-12-26T23:12:50.790Z,3.20
2017-12-26T23:21:43.639Z,3.30
2017-12-26T23:24:30.080Z,3.40
2017-12-26T23:27:27.337Z,3.30
2017-12-26T23:30:14.244Z,3.30
2017-12-26T23:32:58.825Z,3.30
2017-12-26T23:52:43.546Z,3.20
2017-12-26T23:55:37.614Z,3.20
2017-12-26T23:58:27.652Z,3.20
